KMLJ/MLJ METAR and TAF weather

Enter ICAO airport designator
Station Type Date Time Source
KMLJ METAR 2021/07/24 20:55 UTC NOAA

KMLJ 242055Z AUTO 00000KT 10SM SCT065 30/24 A3005 RMK AO2


Station Type Date Time Source
KMLJ Decoded METAR 2021/07/24 20:55 UTC NOAA

Milledgeville, Baldwin County Airport, GA, United States (KMLJ) 33-09-15N 083-14-26W
Jul 24, 2021 - 04:55 PM EDT / 2021.07.24 2055 UTC
Wind: Calm:0
Visibility: 10 mile(s):0
Sky conditions: partly cloudy
Temperature: 86 F (30 C)
Heat index: 95.0 F (35.0 C):1
Dew Point: 75 F (24 C)
Relative Humidity: 70%
Pressure (altimeter): 30.05 in. Hg (1017 hPa)
ob: KMLJ 242055Z AUTO 00000KT 10SM SCT065 30/24 A3005 RMK AO2
cycle: 21

Station Type Date Time Source
KMLJ TAF UTC NOAA

Error!

Example: see airport list